createdAt,value
2022-09-30T00:01:03.137Z,98573.00
2022-09-30T00:02:36.991Z,98567.00
2022-09-30T00:04:16.589Z,98573.00
2022-09-30T00:05:55.435Z,98565.00
2022-09-30T00:07:28.843Z,98570.00
2022-09-30T00:09:03.355Z,98571.00
2022-09-30T00:10:38.070Z,98577.00
2022-09-30T00:12:11.559Z,98577.00
2022-09-30T00:13:47.802Z,98572.00
2022-09-30T00:15:21.358Z,98571.00
2022-09-30T00:16:54.584Z,98579.00
2022-09-30T00:18:28.678Z,98578.00
2022-09-30T00:20:02.948Z,98575.00
2022-09-30T00:21:37.211Z,98576.00
2022-09-30T00:23:10.853Z,98571.00
2022-09-30T00:24:44.203Z,98577.00
2022-09-30T00:26:21.834Z,98582.00
2022-09-30T00:27:55.402Z,98581.00
2022-09-30T00:29:28.762Z,98578.00
2022-09-30T00:31:05.213Z,98584.00
2022-09-30T00:32:39.173Z,98584.00
2022-09-30T00:34:13.126Z,98590.00
2022-09-30T00:35:46.367Z,98584.00
2022-09-30T00:37:19.604Z,98588.00
2022-09-30T00:38:52.070Z,98583.00
2022-09-30T00:40:25.266Z,98592.00
2022-09-30T00:42:03.385Z,98587.00
2022-09-30T00:43:43.365Z,98587.00
2022-09-30T00:45:17.929Z,98588.00
2022-09-30T00:46:50.461Z,98589.00
2022-09-30T00:48:37.516Z,98596.00
2022-09-30T00:50:22.732Z,98597.00
2022-09-30T00:51:58.710Z,98587.00
2022-09-30T00:53:40.356Z,98592.00
2022-09-30T00:55:28.272Z,98581.00
2022-09-30T00:57:08.421Z,98586.00
2022-09-30T00:58:48.024Z,98590.00
2022-09-30T01:00:24.226Z,98591.00
2022-09-30T01:02:05.108Z,98598.00
2022-09-30T01:03:46.858Z,98600.00
2022-09-30T01:05:23.418Z,98593.00
2022-09-30T01:07:06.869Z,98590.00
2022-09-30T01:08:46.716Z,98595.00
2022-09-30T01:10:22.990Z,98592.00
2022-09-30T01:12:00.982Z,98593.00
2022-09-30T01:13:41.160Z,98596.00
2022-09-30T01:15:17.325Z,98587.00
2022-09-30T01:17:09.060Z,98593.00
2022-09-30T01:19:38.968Z,98589.00
2022-09-30T01:21:52.254Z,98600.00
2022-09-30T01:24:31.542Z,98590.00
2022-09-30T01:26:36.261Z,98592.00
2022-09-30T01:28:47.709Z,98580.00
2022-09-30T01:30:23.227Z,98586.00
2022-09-30T01:32:08.030Z,98591.00
2022-09-30T01:33:53.541Z,98592.00
2022-09-30T01:35:39.430Z,98602.00
2022-09-30T01:37:25.690Z,98599.00
2022-09-30T01:39:18.669Z,98601.00
2022-09-30T01:41:06.621Z,98598.00
2022-09-30T01:42:56.026Z,98606.00
2022-09-30T01:44:41.446Z,98605.00
2022-09-30T01:46:28.444Z,98598.00
2022-09-30T01:48:12.470Z,98610.00
2022-09-30T01:49:58.809Z,98608.00
2022-09-30T01:51:43.106Z,98605.00
2022-09-30T01:53:28.716Z,98614.00
2022-09-30T01:55:09.794Z,98619.00
2022-09-30T01:56:48.646Z,98607.00
2022-09-30T01:58:39.723Z,98602.00
2022-09-30T02:00:15.283Z,98617.00
2022-09-30T02:01:57.936Z,98606.00
2022-09-30T02:03:41.186Z,98605.00
2022-09-30T02:05:22.915Z,98602.00
2022-09-30T02:07:04.449Z,98605.00
2022-09-30T02:08:46.817Z,98603.00
2022-09-30T02:10:28.624Z,98604.00
2022-09-30T02:12:07.966Z,98604.00
2022-09-30T02:13:49.742Z,98610.00
2022-09-30T02:15:29.034Z,98616.00
2022-09-30T02:17:08.563Z,98616.00
2022-09-30T02:18:47.404Z,98606.00
2022-09-30T02:20:25.780Z,98615.00
2022-09-30T02:22:06.110Z,98607.00
2022-09-30T02:23:45.718Z,98612.00
2022-09-30T02:25:25.973Z,98616.00
2022-09-30T02:27:05.016Z,98608.00
2022-09-30T02:28:45.489Z,98610.00
2022-09-30T02:30:20.118Z,98611.00
2022-09-30T02:31:59.197Z,98613.00
2022-09-30T02:33:39.447Z,98618.00
2022-09-30T02:35:23.148Z,98616.00
2022-09-30T02:37:05.069Z,98619.00
2022-09-30T02:38:44.954Z,98610.00
2022-09-30T02:40:26.813Z,98617.00
2022-09-30T02:42:09.078Z,98620.00
2022-09-30T02:43:43.371Z,98612.00
2022-09-30T02:45:23.454Z,98607.00
2022-09-30T02:47:08.215Z,98602.00
2022-09-30T02:48:49.691Z,98616.00
2022-09-30T02:50:35.237Z,98603.00
2022-09-30T02:52:20.889Z,98605.00
2022-09-30T02:54:04.645Z,98609.00
2022-09-30T02:56:00.833Z,98604.00
2022-09-30T02:57:46.662Z,98611.00
2022-09-30T03:01:46.102Z,98611.00
2022-09-30T03:03:26.190Z,98612.00
2022-09-30T03:05:00.287Z,98613.00
2022-09-30T03:06:36.306Z,98612.00
2022-09-30T03:08:09.858Z,98616.00
2022-09-30T03:09:43.253Z,98613.00
2022-09-30T03:11:20.156Z,98611.00
2022-09-30T03:13:17.286Z,98616.00
2022-09-30T03:15:14.353Z,98619.00
2022-09-30T03:17:21.356Z,98626.00
2022-09-30T03:19:25.870Z,98621.00
2022-09-30T03:21:18.248Z,98621.00
2022-09-30T03:23:24.481Z,98624.00
2022-09-30T03:25:17.127Z,98634.00
2022-09-30T03:27:06.452Z,98633.00
2022-09-30T03:28:53.084Z,98634.00
2022-09-30T03:30:28.515Z,98634.00
2022-09-30T03:32:19.476Z,98636.00
2022-09-30T03:34:03.907Z,98645.00
2022-09-30T03:35:53.851Z,98649.00
2022-09-30T03:37:34.171Z,98646.00
2022-09-30T03:39:25.834Z,98654.00
2022-09-30T03:41:08.262Z,98650.00
2022-09-30T03:42:48.051Z,98648.00
2022-09-30T03:44:30.654Z,98645.00
2022-09-30T03:46:19.345Z,98657.00
2022-09-30T03:47:59.625Z,98651.00
2022-09-30T03:49:41.018Z,98648.00
2022-09-30T03:51:16.099Z,98641.00
2022-09-30T03:52:49.984Z,98632.00
2022-09-30T03:54:24.766Z,98639.00
2022-09-30T03:55:58.448Z,98647.00
2022-09-30T03:57:32.178Z,98649.00
2022-09-30T03:59:06.472Z,98656.00
2022-09-30T04:00:44.172Z,98651.00
2022-09-30T04:02:17.845Z,98650.00
2022-09-30T04:03:52.757Z,98656.00
2022-09-30T04:05:26.215Z,98655.00
2022-09-30T04:06:59.419Z,98661.00
2022-09-30T04:08:33.994Z,98658.00
2022-09-30T04:10:10.258Z,98662.00
2022-09-30T04:11:43.884Z,98663.00
2022-09-30T04:13:16.158Z,98662.00
2022-09-30T04:14:49.468Z,98670.00
2022-09-30T04:16:22.056Z,98656.00
2022-09-30T04:17:55.647Z,98668.00
2022-09-30T04:19:28.907Z,98666.00
2022-09-30T04:21:05.738Z,98678.00
2022-09-30T04:22:39.236Z,98675.00
2022-09-30T04:24:12.459Z,98671.00
2022-09-30T04:25:53.909Z,98670.00
2022-09-30T04:27:27.346Z,98674.00
2022-09-30T04:29:00.678Z,98679.00
2022-09-30T04:30:33.942Z,98686.00
2022-09-30T04:32:07.805Z,98695.00
2022-09-30T04:33:40.858Z,98694.00
2022-09-30T04:35:14.647Z,98692.00
2022-09-30T04:36:47.990Z,98701.00
2022-09-30T04:38:21.687Z,98699.00
2022-09-30T04:39:55.456Z,98695.00
2022-09-30T04:41:32.465Z,98704.00
2022-09-30T04:43:06.107Z,98706.00
2022-09-30T04:44:39.424Z,98714.00
2022-09-30T04:46:12.900Z,98705.00
2022-09-30T04:47:46.571Z,98707.00
2022-09-30T04:49:20.431Z,98710.00
2022-09-30T04:50:54.077Z,98705.00
2022-09-30T04:52:27.578Z,98704.00
2022-09-30T04:54:01.400Z,98707.00
2022-09-30T04:55:35.059Z,98713.00
2022-09-30T04:57:10.519Z,98709.00
2022-09-30T04:58:43.963Z,98718.00
2022-09-30T05:00:17.894Z,98723.00
2022-09-30T05:01:51.085Z,98720.00
2022-09-30T05:03:24.489Z,98725.00
2022-09-30T05:04:57.747Z,98727.00
2022-09-30T05:06:30.038Z,98723.00
2022-09-30T05:08:05.110Z,98726.00
2022-09-30T05:09:38.671Z,98723.00
2022-09-30T05:11:18.425Z,98727.00
2022-09-30T05:12:54.449Z,98731.00
2022-09-30T05:14:28.233Z,98737.00
2022-09-30T05:16:02.526Z,98727.00
2022-09-30T05:17:36.501Z,98729.00
2022-09-30T05:19:10.007Z,98736.00
2022-09-30T05:20:42.763Z,98728.00
2022-09-30T05:22:16.480Z,98726.00
2022-09-30T05:23:50.311Z,98728.00
2022-09-30T05:25:24.630Z,98733.00
2022-09-30T05:26:58.055Z,98730.00
2022-09-30T05:28:34.018Z,98731.00
2022-09-30T05:30:10.892Z,98730.00
2022-09-30T05:31:44.366Z,98737.00
2022-09-30T05:33:17.063Z,98730.00
2022-09-30T05:34:50.310Z,98725.00
2022-09-30T05:36:23.878Z,98730.00
2022-09-30T05:37:56.123Z,98730.00
2022-09-30T05:39:29.640Z,98738.00
2022-09-30T05:41:11.201Z,98733.00
2022-09-30T05:42:47.161Z,98736.00
2022-09-30T05:44:21.800Z,98736.00
2022-09-30T05:45:57.055Z,98737.00
2022-09-30T05:47:30.278Z,98732.00
2022-09-30T05:49:03.580Z,98727.00
2022-09-30T05:50:37.466Z,98731.00
2022-09-30T05:52:11.899Z,98738.00
2022-09-30T05:53:45.194Z,98746.00
2022-09-30T05:55:20.295Z,98748.00
2022-09-30T05:56:53.638Z,98745.00
2022-09-30T05:58:27.319Z,98751.00
2022-09-30T06:00:02.880Z,98760.00
2022-09-30T06:01:58.810Z,98749.00
2022-09-30T06:03:32.214Z,98761.00
2022-09-30T06:05:06.147Z,98759.00
2022-09-30T06:06:39.668Z,98761.00
2022-09-30T06:08:13.934Z,98758.00
2022-09-30T06:09:47.848Z,98763.00
2022-09-30T06:11:24.924Z,98750.00
2022-09-30T06:13:01.088Z,98760.00
2022-09-30T06:14:34.924Z,98762.00
2022-09-30T06:16:09.871Z,98758.00
2022-09-30T06:17:43.959Z,98767.00
2022-09-30T06:19:17.458Z,98777.00
2022-09-30T06:20:50.705Z,98776.00
2022-09-30T06:22:24.656Z,98777.00
2022-09-30T06:23:58.108Z,98771.00
2022-09-30T06:25:32.610Z,98780.00
2022-09-30T06:27:06.164Z,98779.00
2022-09-30T06:28:40.906Z,98785.00
2022-09-30T06:30:14.443Z,98785.00
2022-09-30T06:31:48.474Z,98782.00
2022-09-30T06:33:23.671Z,98785.00
2022-09-30T06:34:57.304Z,98794.00
2022-09-30T06:36:32.054Z,98796.00
2022-09-30T06:38:05.384Z,98804.00
2022-09-30T06:39:38.652Z,98807.00
2022-09-30T06:41:12.173Z,98802.00
2022-09-30T06:42:46.005Z,98797.00
2022-09-30T06:44:19.341Z,98798.00
2022-09-30T06:45:54.127Z,98808.00
2022-09-30T06:47:29.746Z,98806.00
2022-09-30T06:49:13.079Z,98806.00
2022-09-30T06:50:56.777Z,98802.00
2022-09-30T06:52:36.087Z,98801.00
2022-09-30T06:54:09.997Z,98809.00
2022-09-30T06:55:43.523Z,98804.00
2022-09-30T06:57:22.224Z,98811.00
2022-09-30T06:58:57.101Z,98801.00
2022-09-30T07:00:30.421Z,98803.00
2022-09-30T07:02:03.720Z,98811.00
2022-09-30T07:03:37.737Z,98811.00
2022-09-30T07:05:13.252Z,98814.00
2022-09-30T07:06:47.359Z,98810.00
2022-09-30T07:08:20.867Z,98814.00
2022-09-30T07:09:59.450Z,98805.00
2022-09-30T07:11:33.269Z,98813.00
2022-09-30T07:13:06.776Z,98814.00
2022-09-30T07:14:40.111Z,98817.00
2022-09-30T07:16:14.506Z,98824.00
2022-09-30T07:17:52.883Z,98826.00
2022-09-30T07:19:26.144Z,98809.00
2022-09-30T07:21:00.823Z,98812.00
2022-09-30T07:22:34.537Z,98819.00
2022-09-30T07:24:09.225Z,98815.00
2022-09-30T07:25:54.216Z,98817.00
2022-09-30T07:27:31.583Z,98810.00
2022-09-30T07:29:07.154Z,98805.00
2022-09-30T07:30:44.112Z,98816.00
2022-09-30T07:32:19.421Z,98822.00
2022-09-30T07:33:54.475Z,98816.00
2022-09-30T07:35:30.490Z,98825.00
2022-09-30T07:37:05.893Z,98819.00
2022-09-30T07:38:43.224Z,98822.00
2022-09-30T07:40:16.547Z,98819.00
2022-09-30T07:41:50.039Z,98820.00
2022-09-30T07:43:23.734Z,98831.00
2022-09-30T07:44:57.203Z,98826.00
2022-09-30T07:46:33.606Z,98827.00
2022-09-30T07:48:26.904Z,98826.00
2022-09-30T07:50:00.397Z,98820.00
2022-09-30T07:51:38.428Z,98828.00
2022-09-30T07:53:13.044Z,98822.00
2022-09-30T07:54:50.442Z,98818.00
2022-09-30T07:56:27.319Z,98820.00
2022-09-30T07:58:01.455Z,98819.00
2022-09-30T07:59:38.469Z,98832.00
2022-09-30T08:01:12.342Z,98821.00
2022-09-30T08:02:45.684Z,98822.00
2022-09-30T08:04:21.834Z,98813.00
2022-09-30T08:05:55.491Z,98822.00
2022-09-30T08:07:29.263Z,98821.00
2022-09-30T08:09:05.211Z,98822.00
2022-09-30T08:10:38.581Z,98820.00
2022-09-30T08:12:12.040Z,98817.00
2022-09-30T08:13:45.459Z,98818.00
2022-09-30T08:15:18.832Z,98824.00
2022-09-30T08:16:53.158Z,98818.00
2022-09-30T08:18:27.550Z,98818.00
2022-09-30T08:20:01.212Z,98820.00
2022-09-30T08:21:34.536Z,98824.00
2022-09-30T08:23:08.459Z,98824.00
2022-09-30T08:24:43.066Z,98814.00
2022-09-30T08:26:17.737Z,98822.00
2022-09-30T08:27:51.674Z,98828.00
2022-09-30T08:29:50.029Z,98829.00
2022-09-30T08:31:21.517Z,98824.00
2022-09-30T08:32:55.069Z,98826.00
2022-09-30T08:34:33.715Z,98835.00
2022-09-30T08:36:10.202Z,98829.00
2022-09-30T08:37:43.979Z,98825.00
2022-09-30T08:39:17.420Z,98831.00
2022-09-30T08:41:10.348Z,98827.00
2022-09-30T08:43:14.543Z,98830.00
2022-09-30T08:44:50.390Z,98828.00
2022-09-30T08:46:41.223Z,98825.00
2022-09-30T08:48:37.368Z,98826.00
2022-09-30T08:50:24.553Z,98821.00
2022-09-30T08:52:02.350Z,98822.00
2022-09-30T08:53:42.576Z,98817.00
2022-09-30T08:55:22.744Z,98818.00
2022-09-30T08:56:58.675Z,98825.00
2022-09-30T08:58:35.071Z,98821.00
2022-09-30T09:00:16.032Z,98820.00
2022-09-30T09:01:56.471Z,98814.00
2022-09-30T09:03:34.010Z,98827.00
2022-09-30T09:05:12.528Z,98832.00
2022-09-30T09:06:57.360Z,98833.00
2022-09-30T09:08:51.742Z,98826.00
2022-09-30T09:10:38.004Z,98819.00
2022-09-30T09:12:31.133Z,98818.00
2022-09-30T09:14:19.816Z,98823.00
2022-09-30T09:16:09.726Z,98821.00
2022-09-30T09:18:23.169Z,98825.00
2022-09-30T09:20:12.618Z,98821.00
2022-09-30T09:21:57.125Z,98819.00
2022-09-30T09:23:34.243Z,98828.00
2022-09-30T09:25:14.002Z,98822.00
2022-09-30T09:26:49.260Z,98820.00
2022-09-30T09:28:37.070Z,98823.00
2022-09-30T09:30:14.499Z,98820.00
2022-09-30T09:31:48.886Z,98814.00
2022-09-30T09:33:30.949Z,98816.00
2022-09-30T09:35:15.497Z,98822.00
2022-09-30T09:37:06.211Z,98820.00
2022-09-30T09:39:01.403Z,98820.00
2022-09-30T09:40:57.084Z,98817.00
2022-09-30T09:42:56.022Z,98807.00
2022-09-30T09:44:39.666Z,98817.00
2022-09-30T09:46:24.690Z,98816.00
2022-09-30T09:47:59.568Z,98822.00
2022-09-30T09:49:35.963Z,98819.00
2022-09-30T09:51:22.609Z,98814.00
2022-09-30T09:53:22.000Z,98804.00
2022-09-30T09:54:56.766Z,98817.00
2022-09-30T09:56:33.310Z,98816.00
2022-09-30T09:58:11.112Z,98820.00
2022-09-30T10:01:34.493Z,98834.00
2022-09-30T10:03:18.586Z,98822.00
2022-09-30T10:04:59.900Z,98829.00
2022-09-30T10:06:46.726Z,98826.00
2022-09-30T10:08:23.848Z,98824.00
2022-09-30T10:10:23.496Z,98813.00
2022-09-30T10:12:32.128Z,98820.00
2022-09-30T10:14:05.401Z,98823.00
2022-09-30T10:15:44.237Z,98821.00
2022-09-30T10:17:25.648Z,98818.00
2022-09-30T10:19:00.351Z,98819.00
2022-09-30T10:20:37.855Z,98813.00
2022-09-30T10:22:30.584Z,98823.00
2022-09-30T10:24:27.260Z,98822.00
2022-09-30T10:26:07.944Z,98823.00
2022-09-30T10:27:52.209Z,98823.00
2022-09-30T10:29:31.803Z,98815.00
2022-09-30T10:31:14.321Z,98816.00
2022-09-30T10:32:47.720Z,98814.00
2022-09-30T10:34:29.510Z,98810.00
2022-09-30T10:36:12.537Z,98823.00
2022-09-30T10:37:54.381Z,98821.00
2022-09-30T10:39:31.086Z,98825.00
2022-09-30T10:41:06.968Z,98816.00
2022-09-30T10:42:42.831Z,98817.00
2022-09-30T10:44:21.857Z,98813.00
2022-09-30T10:46:20.778Z,98823.00
2022-09-30T10:47:55.078Z,98817.00
2022-09-30T10:49:36.734Z,98821.00
2022-09-30T10:51:26.040Z,98824.00
2022-09-30T10:53:05.573Z,98820.00
2022-09-30T10:54:55.623Z,98824.00
2022-09-30T10:56:46.375Z,98821.00
2022-09-30T10:58:40.618Z,98825.00
2022-09-30T11:00:21.767Z,98823.00
2022-09-30T11:02:05.232Z,98817.00
2022-09-30T11:03:57.516Z,98817.00
2022-09-30T11:05:37.003Z,98819.00
2022-09-30T11:07:22.734Z,98818.00
2022-09-30T11:09:04.371Z,98826.00
2022-09-30T11:10:47.126Z,98812.00
2022-09-30T11:12:30.169Z,98812.00
2022-09-30T11:14:20.457Z,98812.00
2022-09-30T11:16:04.519Z,98824.00
2022-09-30T11:17:49.579Z,98821.00
2022-09-30T11:19:32.194Z,98827.00
2022-09-30T11:21:13.828Z,98828.00
2022-09-30T11:22:57.575Z,98823.00
2022-09-30T11:24:40.344Z,98826.00
2022-09-30T11:26:27.287Z,98818.00
2022-09-30T11:28:26.764Z,98825.00
2022-09-30T11:30:11.601Z,98828.00
2022-09-30T11:31:57.382Z,98830.00
2022-09-30T11:33:48.448Z,98826.00
2022-09-30T11:35:44.972Z,98831.00
2022-09-30T11:37:33.320Z,98832.00
2022-09-30T11:39:49.630Z,98838.00
2022-09-30T11:41:29.782Z,98836.00
2022-09-30T11:43:31.168Z,98841.00
2022-09-30T11:45:22.841Z,98829.00
2022-09-30T11:47:16.179Z,98833.00
2022-09-30T11:49:19.159Z,98843.00
2022-09-30T11:51:09.320Z,98843.00
2022-09-30T11:52:57.689Z,98846.00
2022-09-30T11:54:53.988Z,98840.00
2022-09-30T11:56:43.132Z,98846.00
2022-09-30T11:58:40.530Z,98848.00
2022-09-30T12:00:18.797Z,98851.00
2022-09-30T12:01:56.631Z,98840.00
2022-09-30T12:03:39.378Z,98840.00
2022-09-30T12:05:21.075Z,98846.00
2022-09-30T12:07:00.207Z,98843.00
2022-09-30T12:08:41.891Z,98845.00
2022-09-30T12:10:24.214Z,98859.00
2022-09-30T12:12:03.238Z,98851.00
2022-09-30T12:13:43.448Z,98855.00
2022-09-30T12:15:21.355Z,98844.00
2022-09-30T12:16:57.644Z,98837.00
2022-09-30T12:18:39.249Z,98843.00
2022-09-30T12:20:26.118Z,98838.00
2022-09-30T12:22:12.212Z,98838.00
2022-09-30T12:23:55.931Z,98846.00
2022-09-30T12:25:37.934Z,98841.00
2022-09-30T12:27:20.968Z,98838.00
2022-09-30T12:29:19.387Z,98839.00
2022-09-30T12:31:03.914Z,98840.00
2022-09-30T12:33:26.519Z,98836.00
2022-09-30T12:35:21.347Z,98824.00
2022-09-30T12:37:27.460Z,98831.00
2022-09-30T12:40:11.403Z,98835.00
2022-09-30T12:42:17.884Z,98837.00
2022-09-30T12:44:49.123Z,98827.00
2022-09-30T12:46:45.243Z,98828.00
2022-09-30T12:48:24.530Z,98825.00
2022-09-30T12:50:04.063Z,98813.00
2022-09-30T12:51:44.232Z,98803.00
2022-09-30T12:53:25.232Z,98810.00
2022-09-30T12:55:03.511Z,98813.00
2022-09-30T12:56:39.135Z,98806.00
2022-09-30T12:58:29.808Z,98806.00
2022-09-30T13:00:16.256Z,98802.00
2022-09-30T13:01:50.344Z,98810.00
2022-09-30T13:03:26.507Z,98800.00
2022-09-30T13:05:55.005Z,98795.00
2022-09-30T13:07:28.363Z,98799.00
2022-09-30T13:09:22.326Z,98792.00
2022-09-30T13:11:00.572Z,98797.00
2022-09-30T13:12:46.615Z,98782.00
2022-09-30T13:14:35.782Z,98795.00
2022-09-30T13:16:11.323Z,98793.00
2022-09-30T13:17:45.791Z,98792.00
2022-09-30T13:19:22.336Z,98795.00
2022-09-30T13:20:58.743Z,98795.00
2022-09-30T13:22:58.843Z,98796.00
2022-09-30T13:25:13.520Z,98792.00
2022-09-30T13:26:50.892Z,98798.00
2022-09-30T13:28:32.163Z,98785.00
2022-09-30T13:30:37.732Z,98792.00
2022-09-30T13:32:12.195Z,98781.00
2022-09-30T13:33:48.631Z,98781.00
2022-09-30T13:35:33.899Z,98771.00
2022-09-30T13:37:42.898Z,98779.00
2022-09-30T13:39:24.198Z,98775.00
2022-09-30T13:41:07.308Z,98778.00
2022-09-30T13:42:51.258Z,98780.00
2022-09-30T13:44:35.055Z,98774.00
2022-09-30T13:46:19.085Z,98779.00
2022-09-30T13:48:10.853Z,98774.00
2022-09-30T13:49:57.217Z,98775.00
2022-09-30T13:51:34.076Z,98769.00
2022-09-30T13:53:16.751Z,98772.00
2022-09-30T13:54:52.219Z,98769.00
2022-09-30T13:56:30.917Z,98771.00
2022-09-30T13:58:27.842Z,98769.00
2022-09-30T14:00:09.428Z,98784.00
2022-09-30T14:02:38.359Z,98778.00
2022-09-30T14:04:56.816Z,98772.00
2022-09-30T14:06:46.830Z,98767.00
2022-09-30T14:09:08.380Z,98772.00
2022-09-30T14:11:03.506Z,98774.00
2022-09-30T14:12:54.951Z,98768.00
2022-09-30T14:15:12.873Z,98778.00
2022-09-30T14:17:15.088Z,98775.00
2022-09-30T14:19:22.164Z,98772.00
2022-09-30T14:21:16.540Z,98769.00
2022-09-30T14:22:50.426Z,98766.00
2022-09-30T14:24:27.829Z,98762.00
2022-09-30T14:26:23.753Z,98770.00
2022-09-30T14:28:05.298Z,98763.00
2022-09-30T14:29:58.572Z,98757.00
2022-09-30T14:31:33.926Z,98753.00
2022-09-30T14:33:21.787Z,98753.00
2022-09-30T14:34:56.433Z,98751.00
2022-09-30T14:36:30.430Z,98756.00
2022-09-30T14:38:14.272Z,98746.00
2022-09-30T14:39:49.895Z,98745.00
2022-09-30T14:41:25.585Z,98749.00
2022-09-30T14:43:03.223Z,98744.00
2022-09-30T14:44:39.533Z,98743.00
2022-09-30T14:46:27.449Z,98742.00
2022-09-30T14:48:08.101Z,98741.00
2022-09-30T14:49:43.962Z,98745.00
2022-09-30T14:51:23.713Z,98739.00
2022-09-30T14:52:58.714Z,98736.00
2022-09-30T14:54:34.596Z,98737.00
2022-09-30T14:56:23.582Z,98736.00
2022-09-30T14:58:21.636Z,98728.00
2022-09-30T15:00:28.955Z,98736.00
2022-09-30T15:02:13.964Z,98731.00
2022-09-30T15:03:53.226Z,98737.00
2022-09-30T15:05:29.594Z,98730.00
2022-09-30T15:07:07.168Z,98735.00
2022-09-30T15:08:41.344Z,98724.00
2022-09-30T15:10:22.226Z,98724.00
2022-09-30T15:11:59.127Z,98725.00
2022-09-30T15:13:34.616Z,98720.00
2022-09-30T15:15:34.451Z,98725.00
2022-09-30T15:17:20.244Z,98730.00
2022-09-30T15:18:54.454Z,98726.00
2022-09-30T15:20:34.467Z,98734.00
2022-09-30T15:22:10.786Z,98721.00
2022-09-30T15:23:51.450Z,98717.00
2022-09-30T15:25:24.651Z,98718.00
2022-09-30T15:26:59.201Z,98714.00
2022-09-30T15:28:34.912Z,98716.00
2022-09-30T15:30:28.981Z,98710.00
2022-09-30T15:32:22.875Z,98707.00
2022-09-30T15:34:13.903Z,98713.00
2022-09-30T15:35:53.334Z,98713.00
2022-09-30T15:37:33.513Z,98719.00
2022-09-30T15:39:20.678Z,98715.00
2022-09-30T15:41:00.749Z,98719.00
2022-09-30T15:42:39.552Z,98722.00
2022-09-30T15:44:20.419Z,98723.00
2022-09-30T15:45:58.165Z,98722.00
2022-09-30T15:47:31.995Z,98721.00
2022-09-30T15:49:31.771Z,98717.00
2022-09-30T15:51:35.389Z,98722.00
2022-09-30T15:53:24.183Z,98729.00
2022-09-30T15:54:59.379Z,98726.00
2022-09-30T15:56:36.823Z,98723.00
2022-09-30T15:58:37.557Z,98719.00
2022-09-30T16:00:39.480Z,98721.00
2022-09-30T16:02:14.354Z,98725.00
2022-09-30T16:03:54.951Z,98721.00
2022-09-30T16:05:28.917Z,98723.00
2022-09-30T16:07:11.171Z,98719.00
2022-09-30T16:08:49.722Z,98725.00
2022-09-30T16:10:24.031Z,98726.00
2022-09-30T16:12:08.709Z,98728.00
2022-09-30T16:13:45.223Z,98726.00
2022-09-30T16:15:19.132Z,98730.00
2022-09-30T16:16:57.252Z,98730.00
2022-09-30T16:18:34.798Z,98724.00
2022-09-30T16:20:23.675Z,98724.00
2022-09-30T16:21:58.970Z,98721.00
2022-09-30T16:23:38.938Z,98730.00
2022-09-30T16:25:20.519Z,98726.00
2022-09-30T16:26:55.884Z,98729.00
2022-09-30T16:28:29.568Z,98725.00
2022-09-30T16:30:04.971Z,98730.00
2022-09-30T16:31:39.029Z,98733.00
2022-09-30T16:33:16.384Z,98727.00
2022-09-30T16:34:51.914Z,98721.00
2022-09-30T16:36:30.282Z,98724.00
2022-09-30T16:38:13.288Z,98737.00
2022-09-30T16:39:45.813Z,98734.00
2022-09-30T16:41:26.596Z,98728.00
2022-09-30T16:43:04.367Z,98727.00
2022-09-30T16:44:48.803Z,98723.00
2022-09-30T16:46:27.552Z,98727.00
2022-09-30T16:48:03.872Z,98740.00
2022-09-30T16:49:39.654Z,98732.00
2022-09-30T16:51:24.613Z,98734.00
2022-09-30T16:53:01.564Z,98730.00
2022-09-30T16:54:35.655Z,98741.00
2022-09-30T16:56:17.275Z,98732.00
2022-09-30T16:57:51.274Z,98740.00
2022-09-30T16:59:27.832Z,98739.00
2022-09-30T17:01:02.716Z,98742.00
2022-09-30T17:02:40.930Z,98742.00
2022-09-30T17:04:18.535Z,98740.00
2022-09-30T17:05:53.758Z,98744.00
2022-09-30T17:07:44.097Z,98733.00
2022-09-30T17:09:22.751Z,98743.00
2022-09-30T17:11:05.359Z,98747.00
2022-09-30T17:12:41.672Z,98744.00
2022-09-30T17:14:17.670Z,98747.00
2022-09-30T17:16:01.784Z,98747.00
2022-09-30T17:17:37.316Z,98749.00
2022-09-30T17:19:17.467Z,98745.00
2022-09-30T17:20:54.586Z,98744.00
2022-09-30T17:22:29.693Z,98746.00
2022-09-30T17:24:04.537Z,98744.00
2022-09-30T17:25:42.371Z,98739.00
2022-09-30T17:27:18.096Z,98739.00
2022-09-30T17:28:51.568Z,98743.00
2022-09-30T17:30:24.861Z,98739.00
2022-09-30T17:32:04.414Z,98740.00
2022-09-30T17:33:42.329Z,98732.00
2022-09-30T17:35:16.651Z,98737.00
2022-09-30T17:36:52.204Z,98731.00
2022-09-30T17:38:25.824Z,98735.00
2022-09-30T17:39:59.114Z,98733.00
2022-09-30T17:41:50.138Z,98734.00
2022-09-30T17:43:23.534Z,98726.00
2022-09-30T17:44:57.448Z,98732.00
2022-09-30T17:46:43.534Z,98743.00
2022-09-30T17:48:19.212Z,98730.00
2022-09-30T17:49:52.777Z,98736.00
2022-09-30T17:51:26.179Z,98733.00
2022-09-30T17:53:02.343Z,98736.00
2022-09-30T17:54:35.976Z,98726.00
2022-09-30T17:56:19.332Z,98730.00
2022-09-30T17:57:55.712Z,98731.00
2022-09-30T17:59:30.096Z,98732.00
2022-09-30T18:01:08.024Z,98727.00
2022-09-30T18:02:44.693Z,98730.00
2022-09-30T18:04:19.562Z,98726.00
2022-09-30T18:05:59.167Z,98720.00
2022-09-30T18:07:32.820Z,98727.00
2022-09-30T18:09:07.935Z,98726.00
2022-09-30T18:10:42.191Z,98716.00
2022-09-30T18:12:16.124Z,98732.00
2022-09-30T18:13:57.851Z,98723.00
2022-09-30T18:15:31.768Z,98728.00
2022-09-30T18:17:07.378Z,98727.00
2022-09-30T18:18:41.069Z,98727.00
2022-09-30T18:20:15.439Z,98722.00
2022-09-30T18:21:49.238Z,98734.00
2022-09-30T18:23:22.759Z,98733.00
2022-09-30T18:25:15.235Z,98732.00
2022-09-30T18:26:48.559Z,98725.00
2022-09-30T18:28:22.111Z,98724.00
2022-09-30T18:29:55.651Z,98724.00
2022-09-30T18:31:37.462Z,98722.00
2022-09-30T18:33:12.259Z,98723.00
2022-09-30T18:34:45.677Z,98726.00
2022-09-30T18:36:19.060Z,98719.00
2022-09-30T18:37:54.410Z,98725.00
2022-09-30T18:39:27.726Z,98725.00
2022-09-30T18:41:02.676Z,98722.00
2022-09-30T18:42:37.990Z,98726.00
2022-09-30T18:44:11.982Z,98728.00
2022-09-30T18:45:56.110Z,98726.00
2022-09-30T18:47:30.301Z,98727.00
2022-09-30T18:49:03.943Z,98727.00
2022-09-30T18:50:37.365Z,98736.00
2022-09-30T18:52:11.123Z,98726.00
2022-09-30T18:53:44.649Z,98726.00
2022-09-30T18:55:18.714Z,98733.00
2022-09-30T18:56:53.477Z,98744.00
2022-09-30T18:58:27.618Z,98747.00
2022-09-30T19:00:02.177Z,98745.00
2022-09-30T19:01:36.649Z,98739.00
2022-09-30T19:03:14.012Z,98739.00
2022-09-30T19:04:48.580Z,98739.00
2022-09-30T19:06:22.624Z,98739.00
2022-09-30T19:07:57.319Z,98741.00
2022-09-30T19:09:30.759Z,98752.00
2022-09-30T19:11:16.697Z,98746.00
2022-09-30T19:12:52.130Z,98749.00
2022-09-30T19:14:25.540Z,98761.00
2022-09-30T19:16:05.330Z,98743.00
2022-09-30T19:17:39.039Z,98742.00
2022-09-30T19:19:12.688Z,98745.00
2022-09-30T19:20:46.112Z,98740.00
2022-09-30T19:22:20.232Z,98741.00
2022-09-30T19:23:58.279Z,98739.00
2022-09-30T19:25:31.855Z,98729.00
2022-09-30T19:27:06.663Z,98744.00
2022-09-30T19:28:41.980Z,98736.00
2022-09-30T19:30:15.858Z,98729.00
2022-09-30T19:31:49.312Z,98733.00
2022-09-30T19:33:25.191Z,98728.00
2022-09-30T19:35:05.095Z,98726.00
2022-09-30T19:36:50.113Z,98727.00
2022-09-30T19:38:35.106Z,98718.00
2022-09-30T19:40:20.793Z,98714.00
2022-09-30T19:42:00.337Z,98719.00
2022-09-30T19:43:41.038Z,98718.00
2022-09-30T19:45:17.407Z,98717.00
2022-09-30T19:46:54.768Z,98717.00
2022-09-30T19:48:29.718Z,98717.00